Terminal Aerodrome Forecast
Issued by NWS

Home | Current Version | Previous Version | Text Only | Print | Product List | Glossary On
Versions: 1 2 3 4 5 6 7 8 9 10 11 12 13 14 15
094
FTUS42 KTAE 221720
TAFDHN
TAF
KDHN 221720Z 2218/2318 03009KT P6SM SCT250
     FM230500 05003KT P6SM SCT150
     FM231300 08006KT P6SM FEW025 SCT250
     FM231700 10009KT P6SM FEW040 SCT250=

USA.gov is the U.S. government's official web portal to all federal, state and local government web resources and services.